createdAt,value
2023-09-25T00:01:06.386Z,13.60
2023-09-25T00:03:35.995Z,13.60
2023-09-25T00:06:06.161Z,13.70
2023-09-25T00:08:35.067Z,13.80
2023-09-25T00:11:05.143Z,13.80
2023-09-25T00:13:35.446Z,13.80
2023-09-25T00:16:04.572Z,13.90
2023-09-25T00:18:33.771Z,14.00
2023-09-25T00:21:02.778Z,14.00
2023-09-25T00:23:31.727Z,14.10
2023-09-25T00:26:04.102Z,14.10
2023-09-25T00:28:33.076Z,14.10
2023-09-25T00:31:03.645Z,14.20
2023-09-25T00:33:32.483Z,14.20
2023-09-25T00:36:01.373Z,14.20
2023-09-25T00:38:30.214Z,14.30
2023-09-25T00:40:58.973Z,14.30
2023-09-25T00:43:27.821Z,14.30
2023-09-25T00:45:56.888Z,14.30
2023-09-25T00:48:29.986Z,14.30
2023-09-25T00:51:00.679Z,14.40
2023-09-25T00:53:31.323Z,14.40
2023-09-25T00:56:00.168Z,14.40
2023-09-25T00:58:29.036Z,14.30
2023-09-25T01:00:58.285Z,14.30
2023-09-25T01:03:28.783Z,14.30
2023-09-25T01:05:57.763Z,14.30
2023-09-25T01:08:26.573Z,14.20
2023-09-25T01:10:56.776Z,14.20
2023-09-25T01:13:26.197Z,14.20
2023-09-25T01:15:55.648Z,14.20
2023-09-25T01:18:24.503Z,14.20
2023-09-25T01:20:54.827Z,14.20
2023-09-25T01:23:25.174Z,14.30
2023-09-25T01:25:53.996Z,14.30
2023-09-25T01:28:22.845Z,14.30
2023-09-25T01:30:51.955Z,14.40
2023-09-25T01:33:20.858Z,14.40
2023-09-25T01:35:49.711Z,14.50
2023-09-25T01:38:18.606Z,14.60
2023-09-25T01:40:48.711Z,14.70
2023-09-25T01:43:17.536Z,14.70
2023-09-25T01:45:46.465Z,14.70
2023-09-25T01:48:15.916Z,14.70
2023-09-25T01:50:45.861Z,14.80
2023-09-25T01:53:14.695Z,14.80
2023-09-25T01:55:43.695Z,14.80
2023-09-25T01:58:13.925Z,14.80
2023-09-25T02:00:42.826Z,14.80
2023-09-25T02:03:12.017Z,14.90
2023-09-25T02:05:46.545Z,14.80
2023-09-25T02:08:15.988Z,14.90
2023-09-25T02:10:44.783Z,14.90
2023-09-25T02:13:14.998Z,14.90
2023-09-25T02:15:43.865Z,14.90
2023-09-25T02:18:12.841Z,14.90
2023-09-25T02:20:42.352Z,15.00
2023-09-25T02:23:11.185Z,15.00
2023-09-25T02:25:40.053Z,15.00
2023-09-25T02:28:09.397Z,15.10
2023-09-25T02:30:39.654Z,15.10
2023-09-25T02:33:08.554Z,15.10
2023-09-25T02:35:38.269Z,15.00
2023-09-25T02:38:07.691Z,15.10
2023-09-25T02:40:36.463Z,15.10
2023-09-25T02:43:05.289Z,15.10
2023-09-25T02:45:34.879Z,15.00
2023-09-25T02:48:05.733Z,14.90
2023-09-25T02:50:34.608Z,14.90
2023-09-25T02:53:04.210Z,14.90
2023-09-25T02:55:33.032Z,14.90
2023-09-25T02:58:01.868Z,14.90
2023-09-25T03:00:30.790Z,15.00
2023-09-25T03:03:00.954Z,14.90
2023-09-25T03:05:31.226Z,14.90
2023-09-25T03:08:00.060Z,14.90
2023-09-25T03:10:28.838Z,14.80
2023-09-25T03:12:57.636Z,14.70
2023-09-25T03:15:26.839Z,14.70
2023-09-25T03:17:55.718Z,14.60
2023-09-25T03:20:26.473Z,14.50
2023-09-25T03:22:57.146Z,14.50
2023-09-25T03:25:26.175Z,14.50
2023-09-25T03:27:55.009Z,14.30
2023-09-25T03:30:23.975Z,14.30
2023-09-25T03:32:56.191Z,14.30
2023-09-25T03:35:25.286Z,14.40
2023-09-25T03:37:56.101Z,14.40
2023-09-25T03:40:24.898Z,14.50
2023-09-25T03:42:53.635Z,14.50
2023-09-25T03:45:24.317Z,14.60
2023-09-25T03:47:54.479Z,14.60
2023-09-25T03:50:23.531Z,14.60
2023-09-25T03:52:52.325Z,14.60
2023-09-25T03:55:22.564Z,14.70
2023-09-25T03:57:51.446Z,14.70
2023-09-25T04:00:23.666Z,14.80
2023-09-25T04:02:52.757Z,14.80
2023-09-25T04:05:21.729Z,14.90
2023-09-25T04:07:50.622Z,14.90
2023-09-25T04:10:20.389Z,14.90
2023-09-25T04:12:50.756Z,15.00
2023-09-25T04:15:19.685Z,15.00
2023-09-25T04:17:48.682Z,15.00
2023-09-25T04:20:26.051Z,14.90
2023-09-25T04:22:57.507Z,15.00
2023-09-25T04:25:29.083Z,15.00
2023-09-25T04:28:01.037Z,15.00
2023-09-25T04:30:30.489Z,14.90
2023-09-25T04:32:59.362Z,14.80
2023-09-25T04:35:30.030Z,14.80
2023-09-25T04:37:58.834Z,14.80
2023-09-25T04:40:32.219Z,14.90
2023-09-25T04:43:02.641Z,14.90
2023-09-25T04:45:32.011Z,15.00
2023-09-25T04:48:02.136Z,15.00
2023-09-25T04:50:31.294Z,15.10
2023-09-25T04:53:00.153Z,15.10
2023-09-25T04:55:29.031Z,15.10
2023-09-25T04:57:58.027Z,15.10
2023-09-25T05:00:28.912Z,15.20
2023-09-25T05:02:58.743Z,15.20
2023-09-25T05:05:28.396Z,15.20
2023-09-25T05:07:58.997Z,15.20
2023-09-25T05:10:29.920Z,15.30
2023-09-25T05:12:59.624Z,15.30
2023-09-25T05:15:30.170Z,15.30
2023-09-25T05:17:59.409Z,15.30
2023-09-25T05:20:28.390Z,15.40
2023-09-25T05:22:58.879Z,15.40
2023-09-25T05:25:28.254Z,15.30
2023-09-25T05:27:58.908Z,15.40
2023-09-25T05:30:29.360Z,15.50
2023-09-25T05:32:58.269Z,15.50
2023-09-25T05:35:27.255Z,15.50
2023-09-25T05:37:56.033Z,15.50
2023-09-25T05:40:25.165Z,15.60
2023-09-25T05:42:54.016Z,15.70
2023-09-25T05:45:23.156Z,15.70
2023-09-25T05:48:00.778Z,15.50
2023-09-25T05:50:34.217Z,15.70
2023-09-25T05:53:13.057Z,15.90
2023-09-25T05:55:42.251Z,16.00
2023-09-25T05:58:11.079Z,16.10
2023-09-25T06:00:46.092Z,16.20
2023-09-25T06:03:18.438Z,16.20
2023-09-25T06:05:47.655Z,16.30
2023-09-25T06:08:16.694Z,16.50
2023-09-25T06:10:46.938Z,16.40
2023-09-25T06:13:15.791Z,16.50
2023-09-25T06:15:47.847Z,16.70
2023-09-25T06:18:20.080Z,16.90
2023-09-25T06:20:49.991Z,16.90
2023-09-25T06:23:18.965Z,17.10
2023-09-25T06:25:47.715Z,17.20
2023-09-25T06:28:17.012Z,17.40
2023-09-25T06:30:46.001Z,17.50
2023-09-25T06:33:15.548Z,17.70
2023-09-25T06:35:45.880Z,17.80
2023-09-25T06:38:14.729Z,18.10
2023-09-25T06:40:47.217Z,18.20
2023-09-25T06:43:16.807Z,18.40
2023-09-25T06:45:45.681Z,18.40
2023-09-25T06:48:14.679Z,18.30
2023-09-25T06:50:45.005Z,18.30
2023-09-25T06:53:14.378Z,18.30
2023-09-25T06:55:45.098Z,18.30
2023-09-25T06:58:14.081Z,18.40
2023-09-25T07:00:54.570Z,18.70
2023-09-25T07:03:25.906Z,19.00
2023-09-25T07:05:57.394Z,19.60
2023-09-25T07:08:27.456Z,20.50
2023-09-25T07:10:56.670Z,21.40
2023-09-25T07:13:25.899Z,22.50
2023-09-25T07:16:05.628Z,23.00
2023-09-25T07:18:34.689Z,23.90
2023-09-25T07:21:05.453Z,24.60
2023-09-25T07:23:34.642Z,25.30
2023-09-25T07:26:05.477Z,25.90
2023-09-25T07:28:34.480Z,26.10
2023-09-25T07:31:03.485Z,25.80
2023-09-25T07:33:33.405Z,25.70
2023-09-25T07:36:04.763Z,25.90
2023-09-25T07:38:36.700Z,25.50
2023-09-25T07:41:07.226Z,24.90
2023-09-25T07:43:50.999Z,24.50
2023-09-25T07:46:27.512Z,24.90
2023-09-25T07:48:57.869Z,25.30
2023-09-25T07:51:26.999Z,26.40
2023-09-25T07:54:00.438Z,26.80
2023-09-25T07:56:29.435Z,26.80
2023-09-25T07:58:58.962Z,27.00
2023-09-25T08:01:31.084Z,27.80
2023-09-25T08:04:01.026Z,28.50
2023-09-25T08:06:30.794Z,28.70
2023-09-25T08:09:01.165Z,28.40
2023-09-25T08:11:30.533Z,28.60
2023-09-25T08:13:59.382Z,29.00
2023-09-25T08:16:28.944Z,29.80
2023-09-25T08:18:57.930Z,30.40
2023-09-25T08:21:27.311Z,31.40
2023-09-25T08:23:57.396Z,31.90
2023-09-25T08:26:30.926Z,32.20
2023-09-25T08:29:02.050Z,32.90
2023-09-25T08:31:32.107Z,33.30
2023-09-25T08:34:01.664Z,33.70
2023-09-25T08:36:30.961Z,34.00
2023-09-25T08:38:59.900Z,34.30
2023-09-25T08:41:32.743Z,34.50
2023-09-25T08:44:01.607Z,34.80
2023-09-25T08:46:31.231Z,35.10
2023-09-25T08:49:02.772Z,35.70
2023-09-25T08:51:36.886Z,36.40
2023-09-25T08:54:06.117Z,37.30
2023-09-25T08:56:36.429Z,37.70
2023-09-25T08:59:07.311Z,37.80
2023-09-25T09:01:37.480Z,38.10
2023-09-25T09:04:09.584Z,38.40
2023-09-25T09:06:38.858Z,38.70
2023-09-25T09:09:09.448Z,38.70
2023-09-25T09:11:40.699Z,37.90
2023-09-25T09:14:09.510Z,37.60
2023-09-25T09:16:38.677Z,37.90
2023-09-25T09:19:10.831Z,37.90
2023-09-25T09:21:44.834Z,38.00
2023-09-25T09:24:25.060Z,38.00
2023-09-25T09:26:56.026Z,39.00
2023-09-25T09:29:25.737Z,39.40
2023-09-25T09:31:56.126Z,40.10
2023-09-25T09:34:27.141Z,40.70
2023-09-25T09:37:03.680Z,39.80
2023-09-25T09:39:36.335Z,38.90
2023-09-25T09:42:09.750Z,38.60
2023-09-25T09:44:40.125Z,37.10
2023-09-25T09:47:20.261Z,36.10
2023-09-25T09:49:50.406Z,34.50
2023-09-25T09:52:21.514Z,34.30
2023-09-25T09:54:52.426Z,34.70
2023-09-25T09:57:24.730Z,35.80
2023-09-25T09:59:53.516Z,36.70
2023-09-25T10:02:23.065Z,37.50
2023-09-25T10:04:53.064Z,37.30
2023-09-25T10:07:21.985Z,36.90
2023-09-25T10:09:59.189Z,37.40
2023-09-25T10:12:42.611Z,37.40
2023-09-25T10:15:13.244Z,36.10
2023-09-25T10:17:43.343Z,35.10
2023-09-25T10:20:31.280Z,34.80
2023-09-25T10:23:01.766Z,35.40
2023-09-25T10:25:34.394Z,35.30
2023-09-25T10:28:05.106Z,34.70
2023-09-25T10:30:38.280Z,34.00
2023-09-25T10:33:08.951Z,33.40
2023-09-25T10:35:42.254Z,32.70
2023-09-25T10:40:53.288Z,31.80
2023-09-25T10:43:25.216Z,31.10
2023-09-25T10:45:56.055Z,30.30
2023-09-25T10:48:25.234Z,29.80
2023-09-25T10:50:54.482Z,28.80
2023-09-25T10:53:24.281Z,28.50
2023-09-25T10:55:53.075Z,27.30
2023-09-25T10:58:23.373Z,26.90
2023-09-25T11:00:52.564Z,26.50
2023-09-25T11:03:24.624Z,26.10
2023-09-25T11:05:54.481Z,25.60
2023-09-25T11:08:23.205Z,25.50
2023-09-25T11:10:52.371Z,25.80
2023-09-25T11:13:23.145Z,26.00
2023-09-25T11:15:52.996Z,26.30
2023-09-25T11:18:22.591Z,26.30
2023-09-25T11:20:53.832Z,26.10
2023-09-25T11:23:23.224Z,26.10
2023-09-25T11:25:53.351Z,26.30
2023-09-25T11:28:26.810Z,26.60
2023-09-25T11:30:56.901Z,26.80
2023-09-25T11:33:30.175Z,27.00
2023-09-25T11:36:00.159Z,27.70
2023-09-25T11:38:31.455Z,29.40
2023-09-25T11:41:05.613Z,30.00
2023-09-25T11:43:36.808Z,29.60
2023-09-25T11:46:05.739Z,29.10
2023-09-25T11:48:34.726Z,28.40
2023-09-25T11:51:03.413Z,28.00
2023-09-25T11:53:32.109Z,27.80
2023-09-25T11:56:00.987Z,28.00
2023-09-25T11:58:30.532Z,28.10
2023-09-25T12:01:01.287Z,28.30
2023-09-25T12:03:30.146Z,28.40
2023-09-25T12:05:59.028Z,28.40
2023-09-25T12:08:27.894Z,28.20
2023-09-25T12:10:57.514Z,27.80
2023-09-25T12:13:27.322Z,27.40
2023-09-25T12:15:56.166Z,27.40
2023-09-25T12:18:26.353Z,27.40
2023-09-25T12:20:55.351Z,27.10
2023-09-25T12:23:24.503Z,27.00
2023-09-25T12:25:54.090Z,26.90
2023-09-25T12:28:22.925Z,26.70
2023-09-25T12:30:51.849Z,26.20
2023-09-25T12:33:22.817Z,26.00
2023-09-25T12:35:53.862Z,25.60
2023-09-25T12:38:22.995Z,25.30
2023-09-25T12:40:54.102Z,25.10
2023-09-25T12:43:32.085Z,25.20
2023-09-25T12:46:03.046Z,25.50
2023-09-25T12:48:34.481Z,25.70
2023-09-25T12:51:04.808Z,25.90
2023-09-25T12:53:34.226Z,25.70
2023-09-25T12:56:03.066Z,25.70
2023-09-25T12:58:32.206Z,25.40
2023-09-25T13:01:01.646Z,25.50
2023-09-25T13:03:32.338Z,25.30
2023-09-25T13:06:02.624Z,25.10
2023-09-25T13:08:34.408Z,25.00
2023-09-25T13:11:03.245Z,25.10
2023-09-25T13:13:32.749Z,25.30
2023-09-25T13:16:01.592Z,25.40
2023-09-25T13:18:30.608Z,25.50
2023-09-25T13:20:59.545Z,25.20
2023-09-25T13:23:28.410Z,25.40
2023-09-25T13:25:58.721Z,25.40
2023-09-25T13:28:27.695Z,25.20
2023-09-25T13:30:56.857Z,24.90
2023-09-25T13:33:26.273Z,24.60
2023-09-25T13:35:55.977Z,24.30
2023-09-25T13:38:25.101Z,24.20
2023-09-25T13:40:54.628Z,23.90
2023-09-25T13:43:25.299Z,23.70
2023-09-25T13:45:56.011Z,23.70
2023-09-25T13:48:27.101Z,23.50
2023-09-25T13:50:56.326Z,23.40
2023-09-25T13:53:25.229Z,23.30
2023-09-25T13:55:54.287Z,23.20
2023-09-25T13:58:25.414Z,23.30
2023-09-25T14:00:56.174Z,23.30
2023-09-25T14:03:26.043Z,23.10
2023-09-25T14:05:55.769Z,23.10
2023-09-25T14:08:24.807Z,23.00
2023-09-25T14:10:53.786Z,22.90
2023-09-25T14:13:27.576Z,23.00
2023-09-25T14:15:57.080Z,23.10
2023-09-25T14:18:28.237Z,23.10
2023-09-25T14:20:57.313Z,22.90
2023-09-25T14:23:26.566Z,22.60
2023-09-25T14:25:55.340Z,22.60
2023-09-25T14:28:24.416Z,22.40
2023-09-25T14:30:54.865Z,22.40
2023-09-25T14:33:23.959Z,22.40
2023-09-25T14:35:59.884Z,22.40
2023-09-25T14:38:29.052Z,22.50
2023-09-25T14:40:58.619Z,22.50
2023-09-25T14:43:27.793Z,22.60
2023-09-25T14:45:59.021Z,22.70
2023-09-25T14:48:28.370Z,22.60
2023-09-25T14:50:57.800Z,22.60
2023-09-25T14:53:26.603Z,22.50
2023-09-25T14:55:57.825Z,22.60
2023-09-25T14:58:27.665Z,22.60
2023-09-25T15:01:01.420Z,22.50
2023-09-25T15:03:31.000Z,22.50
2023-09-25T15:06:00.370Z,22.30
2023-09-25T15:08:29.704Z,22.20
2023-09-25T15:10:59.112Z,22.30
2023-09-25T15:13:27.973Z,22.20
2023-09-25T15:15:56.722Z,22.30
2023-09-25T15:18:27.116Z,22.40
2023-09-25T15:21:06.093Z,22.40
2023-09-25T15:23:35.565Z,22.40
2023-09-25T15:26:05.804Z,22.60
2023-09-25T15:28:35.158Z,22.70
2023-09-25T15:31:05.181Z,22.70
2023-09-25T15:33:37.039Z,22.50
2023-09-25T15:36:06.791Z,22.60
2023-09-25T15:38:41.376Z,22.50
2023-09-25T15:41:10.439Z,22.50
2023-09-25T15:43:39.450Z,22.60
2023-09-25T15:46:13.453Z,22.60
2023-09-25T15:48:44.777Z,22.60
2023-09-25T15:51:14.481Z,22.40
2023-09-25T15:53:44.809Z,22.30
2023-09-25T15:56:15.596Z,22.40
2023-09-25T15:58:44.677Z,22.40
2023-09-25T16:01:13.874Z,22.40
2023-09-25T16:03:49.369Z,22.40
2023-09-25T16:06:19.632Z,22.30
2023-09-25T16:08:49.079Z,22.10
2023-09-25T16:11:19.642Z,22.20
2023-09-25T16:13:49.307Z,22.20
2023-09-25T16:16:18.586Z,22.10
2023-09-25T16:18:52.328Z,22.00
2023-09-25T16:21:23.240Z,21.90
2023-09-25T16:23:52.632Z,21.70
2023-09-25T16:26:21.940Z,21.60
2023-09-25T16:28:51.944Z,21.60
2023-09-25T16:31:21.815Z,21.60
2023-09-25T16:33:53.495Z,21.50
2023-09-25T16:36:22.897Z,21.40
2023-09-25T16:38:53.534Z,21.30
2023-09-25T16:41:24.691Z,21.20
2023-09-25T16:43:54.887Z,21.20
2023-09-25T16:46:25.386Z,21.10
2023-09-25T16:48:57.050Z,20.90
2023-09-25T16:51:27.959Z,20.80
2023-09-25T16:53:57.880Z,20.80
2023-09-25T16:56:27.660Z,20.70
2023-09-25T16:58:57.969Z,20.60
2023-09-25T17:01:29.067Z,20.60
2023-09-25T17:04:00.925Z,20.50
2023-09-25T17:06:31.847Z,20.40
2023-09-25T17:09:01.569Z,20.30
2023-09-25T17:11:34.433Z,20.20
2023-09-25T17:14:06.641Z,20.20
2023-09-25T17:16:37.154Z,20.10
2023-09-25T17:19:09.069Z,20.00
2023-09-25T17:21:39.706Z,19.90
2023-09-25T17:24:09.697Z,19.90
2023-09-25T17:26:40.620Z,19.90
2023-09-25T17:29:10.293Z,19.80
2023-09-25T17:31:41.390Z,19.80
2023-09-25T17:34:13.396Z,19.70
2023-09-25T17:36:43.389Z,19.70
2023-09-25T17:39:14.067Z,19.70
2023-09-25T17:41:45.001Z,19.60
2023-09-25T17:44:16.327Z,19.50
2023-09-25T17:46:46.592Z,19.40
2023-09-25T17:49:17.823Z,19.40
2023-09-25T17:51:49.439Z,19.40
2023-09-25T17:54:20.757Z,19.40
2023-09-25T17:56:51.110Z,19.40
2023-09-25T17:59:21.226Z,19.50
2023-09-25T18:01:51.760Z,19.40
2023-09-25T18:04:23.986Z,19.30
2023-09-25T18:06:54.695Z,19.40
2023-09-25T18:09:28.622Z,19.40
2023-09-25T18:12:01.754Z,19.50
2023-09-25T18:14:34.376Z,19.40
2023-09-25T18:17:06.365Z,19.50
2023-09-25T18:19:39.072Z,19.50
2023-09-25T18:22:09.269Z,19.60
2023-09-25T18:24:40.123Z,19.60
2023-09-25T18:27:12.338Z,19.60
2023-09-25T18:29:43.726Z,19.60
2023-09-25T18:32:14.902Z,19.50
2023-09-25T18:34:47.511Z,19.50
2023-09-25T18:37:22.794Z,19.50
2023-09-25T18:39:55.099Z,19.60
2023-09-25T18:42:27.963Z,19.60
2023-09-25T18:44:58.837Z,19.60
2023-09-25T18:47:29.024Z,19.60
2023-09-25T18:50:01.617Z,19.50
2023-09-25T18:52:33.495Z,19.40
2023-09-25T18:55:05.109Z,19.40
2023-09-25T18:57:36.890Z,19.40
2023-09-25T19:00:15.332Z,19.30
2023-09-25T19:02:46.896Z,19.20
2023-09-25T19:05:22.726Z,19.20
2023-09-25T19:07:54.821Z,19.30
2023-09-25T19:10:26.993Z,19.20
2023-09-25T19:12:57.320Z,19.10
2023-09-25T19:15:27.213Z,19.10
2023-09-25T19:17:58.501Z,19.10
2023-09-25T19:20:32.805Z,19.10
2023-09-25T19:23:07.736Z,19.10
2023-09-25T19:25:38.911Z,19.10
2023-09-25T19:28:10.408Z,19.10
2023-09-25T19:30:41.251Z,18.90
2023-09-25T19:33:12.870Z,18.90
2023-09-25T19:35:45.606Z,18.90
2023-09-25T19:38:17.326Z,18.80
2023-09-25T19:40:48.682Z,18.80
2023-09-25T19:43:20.773Z,18.80
2023-09-25T19:45:50.476Z,18.70
2023-09-25T19:48:20.288Z,18.60
2023-09-25T19:50:51.187Z,18.60
2023-09-25T19:53:21.403Z,18.60
2023-09-25T19:55:52.936Z,18.60
2023-09-25T19:58:24.112Z,18.60
2023-09-25T20:00:54.799Z,18.60
2023-09-25T20:03:28.610Z,18.50
2023-09-25T20:05:59.770Z,18.30
2023-09-25T20:08:31.729Z,18.30
2023-09-25T20:11:01.049Z,18.20
2023-09-25T20:13:31.718Z,18.10
2023-09-25T20:16:03.530Z,18.10
2023-09-25T20:18:34.194Z,18.10
2023-09-25T20:21:07.267Z,18.10
2023-09-25T20:23:37.946Z,18.10
2023-09-25T20:26:11.559Z,18.10
2023-09-25T20:28:41.307Z,18.10
2023-09-25T20:31:11.926Z,18.10
2023-09-25T20:33:41.782Z,18.10
2023-09-25T20:36:12.958Z,18.00
2023-09-25T20:38:42.755Z,18.00
2023-09-25T20:41:11.815Z,17.90
2023-09-25T20:43:41.944Z,17.80
2023-09-25T20:46:12.490Z,17.80
2023-09-25T20:48:42.826Z,17.80
2023-09-25T20:51:15.814Z,17.80
2023-09-25T20:53:46.853Z,17.80
2023-09-25T20:56:15.854Z,17.80
2023-09-25T20:58:47.588Z,17.80
2023-09-25T21:01:16.581Z,17.80
2023-09-25T21:03:45.679Z,17.70
2023-09-25T21:06:15.962Z,17.70
2023-09-25T21:08:45.399Z,17.70
2023-09-25T21:11:14.483Z,17.60
2023-09-25T21:13:43.582Z,17.60
2023-09-25T21:16:12.681Z,17.60
2023-09-25T21:18:41.728Z,17.50
2023-09-25T21:21:47.257Z,17.50
2023-09-25T21:24:18.809Z,17.50
2023-09-25T21:26:47.799Z,17.50
2023-09-25T21:29:16.794Z,17.60
2023-09-25T21:31:45.891Z,17.50
2023-09-25T21:34:17.682Z,17.40
2023-09-25T21:36:47.853Z,17.40
2023-09-25T21:39:16.757Z,17.40
2023-09-25T21:41:45.639Z,17.40
2023-09-25T21:44:14.522Z,17.30
2023-09-25T21:46:43.534Z,17.30
2023-09-25T21:49:13.110Z,17.30
2023-09-25T21:51:42.025Z,17.20
2023-09-25T21:54:12.720Z,17.20
2023-09-25T21:56:41.620Z,17.10
2023-09-25T21:59:10.700Z,17.10
2023-09-25T22:01:39.805Z,17.10
2023-09-25T22:04:10.276Z,17.00
2023-09-25T22:06:39.448Z,17.10
2023-09-25T22:09:11.241Z,17.00
2023-09-25T22:11:43.033Z,17.00
2023-09-25T22:14:12.083Z,16.90
2023-09-25T22:16:41.052Z,17.00
2023-09-25T22:19:10.648Z,17.00
2023-09-25T22:21:39.664Z,17.00
2023-09-25T22:24:09.813Z,17.00
2023-09-25T22:26:38.712Z,16.90
2023-09-25T22:29:09.267Z,16.90
2023-09-25T22:31:38.407Z,16.80
2023-09-25T22:34:07.983Z,16.70
2023-09-25T22:40:28.445Z,16.70
2023-09-25T22:42:58.747Z,16.70
2023-09-25T22:45:29.335Z,16.60
2023-09-25T22:47:59.385Z,16.50
2023-09-25T22:50:28.757Z,16.60
2023-09-25T22:52:58.338Z,16.60
2023-09-25T22:55:27.260Z,16.60
2023-09-25T22:57:56.227Z,16.60
2023-09-25T23:00:25.360Z,16.60
2023-09-25T23:02:56.839Z,16.60
2023-09-25T23:05:26.587Z,16.60
2023-09-25T23:07:55.739Z,16.60
2023-09-25T23:10:24.829Z,16.60
2023-09-25T23:12:53.711Z,16.50
2023-09-25T23:15:22.563Z,16.50
2023-09-25T23:17:51.463Z,16.50
2023-09-25T23:20:24.996Z,16.50
2023-09-25T23:22:56.493Z,16.40
2023-09-25T23:25:28.068Z,16.40
2023-09-25T23:27:57.615Z,16.40
2023-09-25T23:30:26.673Z,16.40
2023-09-25T23:32:55.677Z,16.40
2023-09-25T23:35:26.476Z,16.30
2023-09-25T23:37:55.382Z,16.30
2023-09-25T23:40:26.149Z,16.20
2023-09-25T23:42:55.595Z,16.20
2023-09-25T23:45:25.180Z,16.00
2023-09-25T23:47:55.424Z,16.10
2023-09-25T23:50:26.479Z,16.10
2023-09-25T23:52:55.921Z,16.10
2023-09-25T23:55:25.139Z,16.10
2023-09-25T23:57:54.358Z,16.10
